Time;durP1;ratioP1;P1;durP2;ratioP2;P2;SDS_P1;SDS_P2;PMS_P1;PMS_P2;Temp;Humidity;BMP_temperature;BMP_pressure;BME280_temperature;BME280_humidity;BME280_pressure;Samples;Min_cycle;Max_cycle;Signal;HPM_P1;HPM_P2
2024/02/28 00:56:24;;;;;;;11.15;4.15;;;;;;;3.46;100.00;102050.63;6122024;19;20331;-80
2024/02/28 00:58:41;;;;;;;5.93;3.33;;;;;;;3.42;100.00;102059.28;6119209;19;20030;-81
2024/02/28 01:00:47;;;;;;;6.20;4.00;;;;;;;3.37;100.00;102058.34;6120784;19;20023;-81
2024/02/28 01:02:58;;;;;;;6.38;3.72;;;;;;;3.38;100.00;102061.81;6118192;19;20006;-81
2024/02/28 01:05:07;;;;;;;7.55;4.15;;;;;;;3.36;100.00;102058.31;6120071;19;20326;-80
2024/02/28 01:07:14;;;;;;;7.10;4.18;;;;;;;3.37;100.00;102054.84;6119830;19;20010;-80
2024/02/28 01:09:20;;;;;;;14.32;4.10;;;;;;;3.40;100.00;102060.97;6117644;19;20010;-82
2024/02/28 01:11:33;;;;;;;5.63;3.67;;;;;;;3.46;100.00;102054.94;6120917;19;20006;-81
2024/02/28 01:13:41;;;;;;;6.50;4.75;;;;;;;3.56;100.00;102056.78;6118804;19;20006;-82
2024/02/28 01:15:47;;;;;;;5.75;3.55;;;;;;;3.53;100.00;102048.97;6114971;19;20023;-81
2024/02/28 01:17:53;;;;;;;6.68;3.60;;;;;;;3.55;100.00;102052.41;6120518;19;20010;-80
2024/02/28 01:19:58;;;;;;;7.40;4.32;;;;;;;3.56;100.00;102045.50;6119285;19;20038;-81
2024/02/28 01:22:04;;;;;;;9.10;4.60;;;;;;;3.51;100.00;102042.88;6118961;19;20038;-82
2024/02/28 01:24:15;;;;;;;7.43;4.38;;;;;;;3.47;100.00;102047.16;6118844;19;20002;-82
2024/02/28 01:26:23;;;;;;;12.13;4.93;;;;;;;3.46;100.00;102040.22;6116797;19;20008;-81
2024/02/28 01:28:53;;;;;;;9.02;3.78;;;;;;;3.46;100.00;102042.81;6119348;19;20038;-81
2024/02/28 01:31:00;;;;;;;7.43;3.95;;;;;;;3.45;100.00;102041.09;6119388;19;20034;-80
2024/02/28 01:33:10;;;;;;;7.90;4.35;;;;;;;3.49;100.00;102035.06;6118399;19;20844;-80
2024/02/28 01:35:17;;;;;;;8.15;4.30;;;;;;;3.47;100.00;102034.16;6118042;19;20018;-81
2024/02/28 01:37:28;;;;;;;9.27;4.60;;;;;;;3.44;100.00;102035.88;6115156;19;20013;-81
2024/02/28 01:39:33;;;;;;;10.63;4.10;;;;;;;3.44;100.00;102041.94;6113433;19;20006;-82
2024/02/28 01:41:38;;;;;;;6.15;3.95;;;;;;;3.50;100.00;102043.72;6115494;19;20489;-81
2024/02/28 01:43:50;;;;;;;8.50;4.25;;;;;;;3.59;100.00;102043.81;6111375;19;20198;-82
2024/02/28 01:46:06;;;;;;;10.30;4.32;;;;;;;3.65;100.00;102050.78;6110387;19;20082;-81
2024/02/28 01:48:16;;;;;;;11.70;4.50;;;;;;;3.67;100.00;102046.47;6119444;19;20010;-82
2024/02/28 01:50:31;;;;;;;8.05;4.20;;;;;;;3.64;100.00;102049.91;6117748;19;20137;-82
2024/02/28 01:52:40;;;;;;;8.25;4.53;;;;;;;3.71;100.00;102041.31;6119544;19;20010;-82
2024/02/28 01:54:50;;;;;;;10.25;4.07;;;;;;;3.76;100.00;102046.50;6123967;19;20499;-82
2024/02/28 01:56:59;;;;;;;7.03;4.45;;;;;;;3.85;100.00;102043.13;6125818;19;20015;-80
2024/02/28 01:59:09;;;;;;;7.40;4.30;;;;;;;3.85;100.00;102044.00;6131159;19;20007;-79
2024/02/28 02:01:17;;;;;;;8.00;4.95;;;;;;;3.83;100.00;102040.50;6129441;19;20038;-80
2024/02/28 02:03:22;;;;;;;8.88;4.68;;;;;;;3.87;100.00;102037.06;6132545;19;20014;-81
2024/02/28 02:05:30;;;;;;;10.45;5.10;;;;;;;3.91;100.00;102038.81;6136918;19;20587;-82
2024/02/28 02:07:43;;;;;;;8.48;5.07;;;;;;;3.92;100.00;102035.38;6110592;19;20011;-81
2024/02/28 02:09:50;;;;;;;7.05;4.57;;;;;;;4.01;100.00;102033.69;6111978;19;20027;-81
2024/02/28 02:12:12;;;;;;;11.45;5.25;;;;;;;4.07;100.00;102028.50;6109914;19;20010;-81
2024/02/28 02:14:20;;;;;;;9.52;4.68;;;;;;;4.09;100.00;102034.59;6001972;19;2006498;-80
2024/02/28 02:16:39;;;;;;;11.30;4.93;;;;;;;4.10;100.00;102031.13;6103723;19;20018;-81
2024/02/28 02:18:46;;;;;;;7.85;4.18;;;;;;;4.07;100.00;102023.31;6101306;19;20110;-81
2024/02/28 02:20:54;;;;;;;13.18;5.97;;;;;;;4.08;100.00;102031.13;6100110;19;20822;-80
2024/02/28 02:23:01;;;;;;;9.38;5.55;;;;;;;4.07;100.00;102029.38;6097769;19;20014;-81
2024/02/28 02:25:09;;;;;;;9.07;4.70;;;;;;;4.09;100.00;102038.06;6094654;19;20761;-80
2024/02/28 02:27:12;;;;;;;9.48;4.97;;;;;;;4.10;100.00;102034.59;6093176;19;20014;-83
2024/02/28 02:29:19;;;;;;;;;;;;;;;4.09;100.00;102037.19;6095735;19;20018;-80
2024/02/28 02:31:28;;;;;;;8.38;5.10;;;;;;;4.11;100.00;102038.09;6094036;19;19922;-83
2024/02/28 02:33:33;;;;;;;10.07;4.78;;;;;;;4.13;100.00;102038.94;6090849;19;20478;-80
2024/02/28 02:35:40;;;;;;;9.50;5.07;;;;;;;4.16;100.00;102041.53;6093155;19;20029;-80
2024/02/28 04:24:42;;;;;;;11.38;6.63;;;;;;;4.91;100.00;102022.75;4511606;19;3064297;-81
2024/02/28 04:26:59;;;;;;;10.10;5.47;;;;;;;4.92;100.00;102022.72;6114741;19;20014;-80
2024/02/28 04:29:07;;;;;;;14.10;6.95;;;;;;;5.02;100.00;102023.63;6115782;19;20018;-81
2024/02/28 04:31:17;;;;;;;12.10;7.35;;;;;;;4.97;100.00;102034.03;6115823;19;20031;-81
2024/02/28 04:33:20;;;;;;;9.85;6.32;;;;;;;4.91;100.00;102035.78;6118489;19;20033;-80
2024/02/28 04:35:29;;;;;;;13.95;6.18;;;;;;;4.91;100.00;102040.97;6118501;19;20017;-80
2024/02/28 04:37:36;;;;;;;12.43;6.70;;;;;;;4.92;100.00;102045.31;6116437;19;21007;-81
2024/02/28 04:39:47;;;;;;;16.70;8.20;;;;;;;4.90;100.00;102047.03;6119830;19;20041;-80
2024/02/28 04:42:03;;;;;;;16.80;7.65;;;;;;;4.88;100.00;102054.88;6014511;19;2005518;-80
2024/02/28 04:44:14;;;;;;;14.95;7.93;;;;;;;4.93;100.00;102050.53;6123961;19;20014;-79
2024/02/28 04:46:25;;;;;;;14.95;8.68;;;;;;;4.89;100.00;102051.38;6128063;19;20029;-82
2024/02/28 04:48:44;;;;;;;11.25;7.07;;;;;;;4.89;100.00;102055.72;6128798;19;20026;-80
2024/02/28 04:50:50;;;;;;;13.93;8.15;;;;;;;4.91;100.00;102048.78;6133502;19;20026;-78
2024/02/28 04:53:02;;;;;;;14.18;7.63;;;;;;;4.90;100.00;102053.13;6130705;19;20010;-80
2024/02/28 04:55:13;;;;;;;12.38;7.57;;;;;;;4.92;100.00;102048.78;6137849;19;20212;-81
2024/02/28 04:57:21;;;;;;;13.75;8.25;;;;;;;4.89;100.00;102045.31;6134040;19;20007;-81
2024/02/28 04:59:33;;;;;;;12.88;7.35;;;;;;;4.88;100.00;102047.06;6135457;19;20010;-80
2024/02/28 05:01:41;;;;;;;14.50;8.90;;;;;;;4.89;100.00;102045.31;6132959;19;20007;-80
2024/02/28 05:03:57;;;;;;;16.05;8.55;;;;;;;4.95;100.00;102042.72;6129931;19;20479;-81
2024/02/28 05:06:02;;;;;;;14.93;8.35;;;;;;;4.90;100.00;102039.22;6127642;19;20010;-80
2024/02/28 05:08:08;;;;;;;19.08;10.10;;;;;;;4.95;100.00;102037.50;6118855;19;20006;-76
2024/02/28 05:10:20;;;;;;;17.02;9.10;;;;;;;4.92;100.00;102046.16;6122645;19;20038;-79
2024/02/28 05:12:43;;;;;;;11.90;7.97;;;;;;;4.94;100.00;102049.66;6119909;19;20011;-80
2024/02/28 06:03:22;;;;;;;22.98;10.85;;;;;;;5.01;100.00;102047.94;6130022;19;20045;-76
2024/02/28 06:05:27;;;;;;;18.15;10.63;;;;;;;5.03;100.00;102054.91;5960124;19;2950441;-79
2024/02/28 06:07:35;;;;;;;18.42;11.70;;;;;;;5.03;100.00;102052.31;6122147;19;20006;-80
2024/02/28 06:09:45;;;;;;;25.27;11.40;;;;;;;5.04;100.00;102047.94;6125344;19;20015;-81
2024/02/28 06:11:53;;;;;;;22.25;12.00;;;;;;;5.05;100.00;102047.97;6123122;19;20013;-81
2024/02/28 06:14:02;;;;;;;25.10;12.25;;;;;;;5.04;100.00;102053.16;6125385;19;20049;-82
2024/02/28 06:16:18;;;;;;;18.85;12.05;;;;;;;5.17;100.00;102049.72;6124266;19;20011;-80
2024/02/28 06:18:27;;;;;;;21.65;11.05;;;;;;;5.09;100.00;102058.38;6130413;19;20013;-81
2024/02/28 06:20:36;;;;;;;18.75;11.35;;;;;;;5.12;100.00;102048.84;6131519;19;20027;-80
2024/02/28 06:22:44;;;;;;;18.88;11.40;;;;;;;5.12;100.00;102055.78;6133461;19;20014;-80
2024/02/28 06:24:55;;;;;;;19.48;11.63;;;;;;;5.12;100.00;102059.25;6132026;19;20014;-81
2024/02/28 06:27:02;;;;;;;23.42;11.95;;;;;;;5.11;100.00;102061.84;6128688;19;20108;-80
2024/02/28 06:29:11;;;;;;;16.15;10.73;;;;;;;5.16;100.00;102062.72;6128893;19;20015;-81
2024/02/28 06:31:25;;;;;;;20.85;12.27;;;;;;;5.17;100.00;102065.34;6126832;19;20009;-80
2024/02/28 06:33:36;;;;;;;19.88;10.93;;;;;;;5.14;100.00;102065.34;6118538;19;20013;-79
2024/02/28 06:35:48;;;;;;;16.45;10.40;;;;;;;5.16;100.00;102081.84;6121845;19;20025;-80
2024/02/28 06:38:07;;;;;;;23.25;12.27;;;;;;;5.16;100.00;102081.84;6119013;19;20034;-81
2024/02/28 06:41:29;;;;;;;19.48;11.07;;;;;;;5.18;100.00;102094.88;6109711;19;20041;-76
2024/02/28 06:43:37;;;;;;;15.70;11.30;;;;;;;5.14;100.00;102096.63;6116375;19;20032;-80
2024/02/28 06:45:51;;;;;;;19.55;11.15;;;;;;;5.16;100.00;102094.88;6113076;19;20086;-78
2024/02/28 07:16:27;;;;;;;15.20;8.73;;;;;;;5.43;100.00;102108.81;5961206;19;2970825;-80
2024/02/28 07:18:33;;;;;;;16.50;10.85;;;;;;;5.41;100.00;102110.56;6117591;19;20123;-80
2024/02/28 07:20:42;;;;;;;20.10;11.77;;;;;;;5.45;100.00;102101.84;6116872;19;20042;-80
2024/02/28 07:22:46;;;;;;;20.60;12.15;;;;;;;5.46;100.00;102114.03;6115584;19;20023;-81
2024/02/28 07:24:56;;;;;;;22.90;11.02;;;;;;;5.52;100.00;102114.03;6117751;19;20023;-82
2024/02/28 07:27:03;;;;;;;20.05;12.00;;;;;;;5.51;100.00;102112.31;6119754;19;20002;-80
2024/02/28 07:29:13;;;;;;;18.33;11.65;;;;;;;5.58;100.00;102108.84;6119139;19;20005;-81
2024/02/28 07:31:32;;;;;;;22.45;12.38;;;;;;;5.56;100.00;102105.34;6124200;19;20014;-81
2024/02/28 07:33:39;;;;;;;19.58;11.98;;;;;;;5.56;100.00;102104.50;6125811;19;20472;-80
2024/02/28 07:36:01;;;;;;;21.90;11.35;;;;;;;5.58;100.00;102108.84;6130645;19;20002;-83
2024/02/28 07:38:10;;;;;;;20.02;11.32;;;;;;;5.67;100.00;102119.25;6027874;19;2005283;-81
2024/02/28 07:40:20;;;;;;;25.70;12.00;;;;;;;5.67;100.00;102119.25;6132775;19;20006;-81
2024/02/28 07:42:29;;;;;;;25.10;12.88;;;;;;;5.72;100.00;102122.75;6130279;19;20015;-81
2024/02/28 07:44:35;;;;;;;19.30;12.65;;;;;;;5.76;100.00;102127.97;6131035;19;20033;-82
2024/02/28 07:46:45;;;;;;;21.35;12.50;;;;;;;5.75;100.00;102126.22;6130113;19;20820;-82
2024/02/28 07:48:52;;;;;;;22.13;13.73;;;;;;;5.76;100.00;102123.59;6130116;19;20011;-82
2024/02/28 07:50:58;;;;;;;19.98;12.20;;;;;;;5.77;100.00;102127.09;6126575;19;20663;-81
2024/02/28 07:53:07;;;;;;;25.55;12.82;;;;;;;5.86;100.00;102134.91;6121024;19;20010;-82
2024/02/28 08:18:29;;;;;;;20.73;11.88;;;;;;;6.04;100.00;102163.66;6106674;19;20018;-76
2024/02/28 08:20:38;;;;;;;21.27;14.27;;;;;;;6.08;100.00;102162.78;6090044;19;20092;-82
2024/02/28 08:22:46;;;;;;;23.73;12.95;;;;;;;6.11;100.00;102173.22;6086473;19;20041;-80
2024/02/28 08:24:56;;;;;;;33.08;15.18;;;;;;;6.08;100.00;102172.31;6088615;19;20334;-82
2024/02/28 08:27:01;;;;;;;25.00;15.30;;;;;;;6.04;100.00;102165.38;6086892;19;20003;-82
2024/02/28 08:29:08;;;;;;;19.65;14.13;;;;;;;6.12;100.00;102168.84;6087611;19;20011;-79
2024/02/28 08:31:19;;;;;;;23.98;13.10;;;;;;;6.09;100.00;102181.91;6083266;19;20006;-77
2024/02/28 08:33:27;;;;;;;24.02;14.52;;;;;;;6.07;100.00;102181.03;6085852;19;20561;-77
2024/02/28 08:35:42;;;;;;;25.73;13.52;;;;;;;6.10;100.00;102186.25;6085416;19;20046;-78
2024/02/28 08:37:48;;;;;;;23.60;13.13;;;;;;;6.10;100.00;102188.88;6083168;19;20003;-77
2024/02/28 08:39:55;;;;;;;29.50;14.43;;;;;;;6.02;100.00;102188.00;6085209;19;20015;-78
2024/02/28 08:42:02;;;;;;;22.25;13.93;;;;;;;6.10;100.00;102181.91;6085163;19;20007;-78
2024/02/28 08:44:10;;;;;;;20.83;13.23;;;;;;;6.06;100.00;102185.41;6083768;19;20011;-78
2024/02/28 08:46:17;;;;;;;22.88;13.57;;;;;;;6.07;100.00;102187.13;6082408;19;20092;-78
2024/02/28 09:16:37;;;;;;;24.80;12.85;;;;;;;6.54;100.00;102178.38;5511323;19;11980752;-75
2024/02/28 09:19:48;;;;;;;29.50;13.82;;;;;;;6.64;100.00;102178.34;6117921;19;20271;-77
2024/02/28 09:22:26;;;;;;;;;;;;;;;;;;;;;
2024/02/28 09:25:12;;;;;;;30.45;17.33;;;;;;;6.72;100.00;102173.97;6009174;19;2004521;-74
2024/02/28 09:28:14;;;;;;;21.05;13.95;;;;;;;7.05;100.00;102172.97;6080026;19;20008;-76
2024/02/28 09:30:28;;;;;;;31.30;14.85;;;;;;;7.28;100.00;102172.84;6112566;19;20343;-78
2024/02/28 09:35:22;;;;;;;27.83;16.17;;;;;;;7.16;100.00;102184.25;6005573;19;2004831;-77
2024/02/28 09:40:05;;;;;;;;;;;;;;;7.17;100.00;102178.16;6088260;19;20449;-78
2024/02/28 09:45:47;;;;;;;35.70;17.17;;;;;;;7.42;100.00;102186.72;6010607;19;2004678;-79
2024/02/28 09:48:32;;;;;;;28.65;14.50;;;;;;;7.53;100.00;102180.53;6107586;19;20014;-79
2024/02/28 09:51:27;;;;;;;23.60;14.30;;;;;;;7.60;100.00;102177.03;6068552;19;20460;-76
2024/02/28 09:54:18;;;;;;;;;;;;;;;;;;;;;
2024/02/28 09:57:17;;;;;;;;;;;;;;;;;;;;;
2024/02/28 10:03:04;;;;;;;27.42;14.85;;;;;;;7.58;100.00;102178.78;5976380;19;2004858;-78
2024/02/28 10:08:02;;;;;;;32.70;15.73;;;;;;;7.38;100.00;102171.94;6109543;19;20344;-78
2024/02/28 10:10:26;;;;;;;29.73;15.77;;;;;;;7.48;100.00;102173.63;6118667;19;20010;-78
2024/02/28 10:12:41;;;;;;;28.20;14.77;;;;;;;7.33;100.00;102159.75;6008791;19;2004736;-78
2024/02/28 10:15:14;;;;;;;29.58;15.00;;;;;;;7.42;100.00;102162.31;6118332;19;20830;-78
2024/02/28 10:17:24;;;;;;;30.20;16.25;;;;;;;7.42;100.00;102162.31;6120720;19;20451;-78
2024/02/28 10:19:42;;;;;;;28.65;15.32;;;;;;;7.44;100.00;102163.19;6121624;19;20011;-78
2024/02/28 10:21:58;;;;;;;29.60;15.30;;;;;;;7.38;100.00;102164.09;6124830;19;20245;-76
2024/02/28 10:27:07;;;;;;;37.63;17.88;;;;;;;7.64;100.00;102163.91;6005748;19;2004718;-77
2024/02/28 10:29:35;;;;;;;27.70;14.27;;;;;;;7.79;100.00;102159.44;6067512;19;20018;-77
2024/02/28 10:34:24;;;;;;;27.60;15.52;;;;;;;8.08;100.00;102157.47;6093920;19;20478;-77
2024/02/28 10:37:21;;;;;;;28.35;17.90;;;;;;;8.17;100.00;102153.88;6082680;19;20048;-76
2024/02/28 10:44:03;;;;;;;28.77;17.00;;;;;;;8.31;100.00;102153.75;6087055;19;20452;-76
2024/02/28 10:50:10;;;;;;;28.15;15.52;;;;;;;8.57;100.00;102156.13;6108014;19;20019;-76
2024/02/28 10:53:17;;;;;;;;;;;;;;;;;;;;;
2024/02/28 11:17:10;;;;;;;18.67;10.20;;;;;;;8.68;100.00;102148.13;6077980;19;20007;-78
2024/02/28 11:19:34;;;;;;;23.63;11.63;;;;;;;8.86;100.00;102149.69;6082720;19;20019;-79
2024/02/28 11:21:42;;;;;;;21.90;11.65;;;;;;;8.97;100.00;102140.78;6080611;19;19999;-80
2024/02/28 11:23:50;;;;;;;22.30;12.18;;;;;;;8.92;100.00;102145.22;6083442;19;20338;-80
2024/02/28 11:25:58;;;;;;;20.98;11.13;;;;;;;9.04;100.00;102146.81;6083086;19;20010;-78
2024/02/28 11:28:09;;;;;;;21.08;11.05;;;;;;;9.15;100.00;102144.06;6087636;19;20027;-79
2024/02/28 11:30:21;;;;;;;17.85;9.93;;;;;;;9.20;100.00;102148.34;6083957;19;20074;-77
2024/02/28 11:32:33;;;;;;;20.50;9.80;;;;;;;9.14;100.00;102137.94;6081653;19;20009;-79
2024/02/28 11:34:36;;;;;;;15.55;7.55;;;;;;;9.14;100.00;102142.34;6082103;19;20090;-77
2024/02/28 11:36:41;;;;;;;;;;;;;;;9.15;100.00;102134.44;6081370;19;20010;-77
2024/02/28 11:38:48;;;;;;;16.98;9.00;;;;;;;9.28;100.00;102127.25;6080191;19;19914;-78
2024/02/28 11:40:55;;;;;;;19.17;10.25;;;;;;;9.31;100.00;102123.72;6084089;19;20033;-80
2024/02/28 11:43:02;;;;;;;17.17;9.40;;;;;;;9.37;100.00;102126.25;6083209;19;20006;-79
2024/02/28 11:45:32;;;;;;;17.95;8.43;;;;;;;9.39;100.00;102127.09;5983266;19;2004771;-79
2024/02/28 11:47:43;;;;;;;18.77;9.38;;;;;;;9.36;100.00;102124.53;6087653;19;20007;-78
2024/02/28 11:49:54;;;;;;;18.55;8.45;;;;;;;9.46;100.00;102126.13;6085293;19;19996;-79
2024/02/28 11:51:59;;;;;;;17.73;9.20;;;;;;;9.51;100.00;102123.44;6087217;19;20038;-79
2024/02/28 11:54:10;;;;;;;17.05;8.40;;;;;;;9.57;100.00;102126.81;6082522;19;20007;-78
2024/02/28 11:56:21;;;;;;;23.05;10.95;;;;;;;9.55;100.00;102128.59;6091313;19;20006;-78
2024/02/28 11:58:30;;;;;;;22.77;10.75;;;;;;;9.42;100.00;102130.53;6095168;19;20014;-80
2024/02/28 12:00:50;;;;;;;25.60;11.88;;;;;;;9.26;100.00;102130.78;6097597;19;20010;-78
2024/02/28 12:03:09;;;;;;;31.70;11.80;;;;;;;9.27;100.00;102133.41;6099428;19;20010;-79
2024/02/28 12:05:16;;;;;;;25.27;12.52;;;;;;;9.10;100.00;102131.00;6099347;19;20010;-77
2024/02/28 12:07:22;;;;;;;27.02;13.23;;;;;;;9.03;100.00;102129.38;6101428;19;20020;-79
2024/02/28 12:09:28;;;;;;;28.85;13.48;;;;;;;8.89;100.00;102139.16;6102364;19;20013;-79
2024/02/28 12:11:45;;;;;;;29.05;13.30;;;;;;;8.85;100.00;102137.47;6000870;19;2004788;-78
2024/02/28 12:13:52;;;;;;;28.83;12.55;;;;;;;8.69;100.00;102135.03;6102141;19;20069;-77
2024/02/28 12:16:01;;;;;;;30.55;13.43;;;;;;;8.80;100.00;102134.91;6093503;19;20003;-78
2024/02/28 12:18:13;;;;;;;30.02;13.88;;;;;;;8.75;100.00;102134.94;6095245;19;20042;-81
2024/02/28 12:20:17;;;;;;;30.67;14.23;;;;;;;8.87;100.00;102138.28;6093569;19;20056;-79
2024/02/28 12:22:26;;;;;;;26.80;14.25;;;;;;;8.78;100.00;102141.91;6091529;19;20007;-81
2024/02/28 12:24:32;;;;;;;25.98;13.68;;;;;;;8.93;100.00;102140.88;6090850;19;20002;-79
2024/02/28 12:26:49;;;;;;;28.52;14.20;;;;;;;8.68;100.00;102137.66;6107263;19;20014;-81
2024/02/28 12:28:56;;;;;;;29.02;13.85;;;;;;;8.63;100.00;102135.09;6084502;19;20075;-77
2024/02/28 12:31:04;;;;;;;31.42;14.27;;;;;;;8.49;100.00;102134.38;6088729;19;20119;-78
2024/02/28 12:33:23;;;;;;;31.15;13.63;;;;;;;8.56;100.00;102128.22;6087988;19;20462;-77
2024/02/28 12:35:29;;;;;;;31.20;14.57;;;;;;;8.49;100.00;102126.53;6087050;19;20083;-76
2024/02/28 12:37:36;;;;;;;29.05;14.50;;;;;;;8.45;100.00;102127.44;6083559;19;20020;-76
2024/02/28 12:39:44;;;;;;;28.85;14.55;;;;;;;8.48;100.00;102124.81;6083444;19;20547;-78
2024/02/28 12:41:52;;;;;;;34.42;16.77;;;;;;;8.50;100.00;102130.88;6084658;19;20442;-79
2024/02/28 12:44:00;;;;;;;29.67;14.65;;;;;;;8.46;100.00;102123.94;6080321;19;20042;-77
2024/02/28 12:46:07;;;;;;;29.10;12.80;;;;;;;8.43;100.00;102129.22;6086318;19;20014;-77
2024/02/28 12:48:14;;;;;;;27.90;14.35;;;;;;;8.27;100.00;102121.50;6083542;19;20018;-76
2024/02/28 12:50:35;;;;;;;29.05;14.00;;;;;;;8.27;100.00;102123.25;6085440;19;20533;-79
2024/02/28 12:52:43;;;;;;;24.90;13.60;;;;;;;8.32;100.00;102118.81;6086392;19;20015;-78
2024/02/28 12:54:45;;;;;;;30.42;15.60;;;;;;;8.19;100.00;102122.44;6088859;19;20018;-77
2024/02/28 12:56:54;;;;;;;34.78;14.98;;;;;;;8.24;100.00;102121.53;6091624;19;20014;-78
2024/02/28 12:59:01;;;;;;;33.80;15.63;;;;;;;8.31;100.00;102119.69;6096875;19;20006;-78
2024/02/28 13:01:09;;;;;;;33.15;15.60;;;;;;;8.45;100.00;102132.66;6093412;19;20007;-78
2024/02/28 13:03:14;;;;;;;29.90;14.90;;;;;;;8.32;100.00;102119.69;6093371;19;20042;-79
2024/02/28 13:05:22;;;;;;;34.50;14.35;;;;;;;8.41;100.00;102118.75;6097160;19;20002;-80
2024/02/28 13:07:36;;;;;;;36.42;14.93;;;;;;;8.33;100.00;102116.19;6096461;19;20006;-80
2024/02/28 13:09:42;;;;;;;29.77;13.90;;;;;;;8.25;100.00;102118.03;6097723;19;20010;-79
2024/02/28 13:11:49;;;;;;;24.88;12.73;;;;;;;8.42;100.00;102104.75;6095801;19;20039;-79
2024/02/28 13:13:55;;;;;;;31.75;15.05;;;;;;;8.34;100.00;102104.81;6093807;19;20006;-79
2024/02/28 13:16:15;;;;;;;26.15;12.80;;;;;;;8.44;100.00;102105.63;6092316;19;20002;-79
2024/02/28 13:18:26;;;;;;;27.02;14.00;;;;;;;8.48;100.00;102103.84;5989168;19;2004890;-79
2024/02/28 13:20:37;;;;;;;31.45;15.48;;;;;;;8.31;100.00;102099.59;6086833;19;20029;-79
2024/02/28 13:22:41;;;;;;;31.98;14.30;;;;;;;8.41;100.00;102092.56;6090899;19;20018;-79
2024/02/28 13:24:49;;;;;;;26.85;14.10;;;;;;;8.24;100.00;102095.34;6092023;19;20014;-78
2024/02/28 13:26:57;;;;;;;25.98;13.77;;;;;;;8.28;100.00;102091.78;6086207;19;20014;-78
2024/02/28 13:29:05;;;;;;;26.55;14.68;;;;;;;8.32;100.00;102077.78;6083575;19;20086;-79
2024/02/28 13:31:12;;;;;;;31.10;15.70;;;;;;;8.34;100.00;102076.00;6086442;19;20038;-78
2024/02/28 13:33:20;;;;;;;34.70;16.60;;;;;;;8.33;100.00;102069.03;6083802;19;20472;-78
2024/02/28 13:35:30;;;;;;;33.30;15.18;;;;;;;8.43;100.00;102071.59;6082807;19;20020;-78
2024/02/28 13:37:42;;;;;;;33.85;15.45;;;;;;;8.43;100.00;102053.25;6083870;19;20013;-78
2024/02/28 13:39:51;;;;;;;32.58;16.52;;;;;;;8.54;100.00;102049.59;6085439;19;20070;-78
2024/02/28 13:42:09;;;;;;;31.60;16.70;;;;;;;8.55;100.00;102042.59;6087099;19;20591;-78
2024/02/28 13:44:19;;;;;;;33.97;17.08;;;;;;;8.51;100.00;102033.94;6085288;19;20324;-78
2024/02/28 13:46:43;;;;;;;37.55;16.45;;;;;;;8.55;100.00;102038.22;6081242;19;20007;-79
2024/02/28 13:49:12;;;;;;;34.92;16.55;;;;;;;8.56;100.00;102033.88;6084618;19;20495;-79
2024/02/28 13:51:28;;;;;;;35.65;16.73;;;;;;;8.59;100.00;102028.59;6085720;19;20015;-79
2024/02/28 13:53:42;;;;;;;40.75;18.15;;;;;;;8.49;100.00;102035.69;6082980;19;20027;-78
2024/02/28 13:55:50;;;;;;;31.77;16.15;;;;;;;8.57;100.00;102030.38;6087462;19;20022;-78
2024/02/28 13:58:05;;;;;;;36.10;17.00;;;;;;;8.40;100.00;102034.94;6087923;19;20272;-81
2024/02/28 14:00:17;;;;;;;32.35;15.93;;;;;;;8.47;100.00;102023.50;6087069;19;20078;-81
2024/02/28 14:02:28;;;;;;;39.10;19.65;;;;;;;8.45;100.00;102025.28;6091339;19;20014;-80
2024/02/28 14:04:48;;;;;;;37.08;17.65;;;;;;;8.48;100.00;102015.66;5989501;19;2004714;-79
2024/02/28 14:07:16;;;;;;;35.45;16.67;;;;;;;8.58;100.00;102018.97;6091828;19;20042;-77
2024/02/28 14:09:27;;;;;;;34.40;17.10;;;;;;;8.56;100.00;102012.94;6091557;19;20018;-79
2024/02/28 14:11:32;;;;;;;31.50;15.77;;;;;;;8.56;100.00;102008.53;6093081;19;20019;-79
2024/02/28 14:13:40;;;;;;;30.15;15.82;;;;;;;8.60;100.00;102013.75;6089868;19;20376;-79
2024/02/28 14:15:46;;;;;;;34.10;15.43;;;;;;;8.60;100.00;102011.97;6091158;19;20014;-79
2024/02/28 14:17:54;;;;;;;35.28;14.88;;;;;;;8.61;100.00;102013.72;6088093;19;20129;-80
2024/02/28 14:20:00;;;;;;;28.23;14.75;;;;;;;8.57;100.00;102017.25;6091042;19;20387;-79
2024/02/28 14:22:14;;;;;;;28.00;14.48;;;;;;;8.56;100.00;102008.53;6089576;19;19999;-80
2024/02/28 14:24:36;;;;;;;30.00;15.18;;;;;;;8.66;100.00;102004.06;6090653;19;20494;-80
2024/02/28 14:26:59;;;;;;;27.33;13.30;;;;;;;8.69;100.00;101998.75;6088735;19;20281;-80
2024/02/28 14:29:07;;;;;;;22.63;12.25;;;;;;;8.68;100.00;101997.00;5986885;19;2004692;-80
2024/02/28 14:31:15;;;;;;;27.05;14.18;;;;;;;8.69;100.00;101995.25;6093971;19;20499;-81
2024/02/28 14:33:32;;;;;;;28.13;13.82;;;;;;;8.64;100.00;101992.72;6090578;19;20018;-81
2024/02/28 14:35:42;;;;;;;25.58;12.60;;;;;;;8.67;100.00;101986.56;6093617;19;20010;-80
2024/02/28 14:37:49;;;;;;;26.38;14.43;;;;;;;8.52;100.00;101985.03;6094694;19;20015;-78
2024/02/28 14:40:32;;;;;;;23.17;12.35;;;;;;;8.55;100.00;101987.59;6094093;19;20341;-79
2024/02/28 14:42:39;;;;;;;28.13;11.80;;;;;;;8.52;100.00;101985.03;6092861;19;20086;-78
2024/02/28 14:45:00;;;;;;;26.35;12.82;;;;;;;8.53;100.00;101979.78;6089962;19;20002;-78
2024/02/28 14:47:17;;;;;;;;;;;;;;;8.55;100.00;101984.97;6091733;19;20010;-77
2024/02/28 14:49:32;;;;;;;29.60;13.65;;;;;;;8.53;100.00;101974.53;6091863;19;19918;-77
2024/02/28 14:51:48;;;;;;;25.17;12.60;;;;;;;8.47;100.00;101978.97;6087941;19;20059;-80
2024/02/28 14:54:03;;;;;;;25.58;12.35;;;;;;;8.49;100.00;101979.81;6090748;19;20006;-79
2024/02/28 14:56:25;;;;;;;;;;;;;;;;;;;;;
2024/02/28 14:58:37;;;;;;;17.10;9.18;;;;;;;8.41;100.00;101979.06;6092887;19;20011;-78
2024/02/28 15:01:15;;;;;;;21.33;11.07;;;;;;;8.42;100.00;101986.88;6101224;19;20007;-78
2024/02/28 15:03:23;;;;;;;22.88;10.57;;;;;;;8.50;100.00;101992.03;6106593;19;20034;-77
2024/02/28 15:05:29;;;;;;;20.13;10.93;;;;;;;8.33;100.00;101993.09;6100583;19;20018;-77
2024/02/28 15:07:39;;;;;;;19.08;11.52;;;;;;;8.26;100.00;101996.66;6105706;19;20006;-78
2024/02/28 15:10:05;;;;;;;;;;;;;;;;;;;;;
2024/02/28 15:12:25;;;;;;;17.88;9.75;;;;;;;8.26;100.00;102009.75;6107728;19;20018;-79
2024/02/28 15:14:28;;;;;;;20.85;11.75;;;;;;;8.21;100.00;102003.69;6105996;19;20011;-78
2024/02/28 15:16:34;;;;;;;28.25;12.38;;;;;;;8.17;100.00;102006.41;6108843;19;20014;-78
2024/02/28 15:18:41;;;;;;;26.90;11.63;;;;;;;8.20;100.00;101988.03;6106782;19;20038;-78
2024/02/28 15:20:50;;;;;;;23.88;11.75;;;;;;;8.20;100.00;101988.03;6106073;19;20019;-78
2024/02/28 15:23:11;;;;;;;23.70;12.10;;;;;;;8.20;100.00;101986.28;6101280;19;20020;-77
2024/02/28 15:25:28;;;;;;;25.25;13.07;;;;;;;8.14;100.00;101988.97;6096928;19;20014;-78
2024/02/28 15:27:42;;;;;;;29.30;13.32;;;;;;;8.15;100.00;101985.47;6095789;19;20261;-81
2024/02/28 15:29:58;;;;;;;25.83;14.05;;;;;;;8.17;100.00;101981.06;6014717;19;2004837;-77
2024/02/28 15:32:04;;;;;;;23.55;13.05;;;;;;;8.30;100.00;101980.03;5988827;19;2004557;-79
2024/02/28 15:34:08;;;;;;;25.65;13.88;;;;;;;8.31;100.00;101970.41;6090451;19;20014;-80
2024/02/28 15:36:21;;;;;;;28.70;13.27;;;;;;;8.26;100.00;101972.22;6091301;19;20042;-80
2024/02/28 15:38:37;;;;;;;26.55;14.20;;;;;;;8.28;100.00;101979.19;6087140;19;20404;-79
2024/02/28 15:40:51;;;;;;;24.00;12.38;;;;;;;8.29;100.00;101966.94;6083739;19;20015;-78
2024/02/28 15:43:14;;;;;;;25.67;13.15;;;;;;;8.29;100.00;101959.97;6090576;19;20036;-81
2024/02/28 15:45:23;;;;;;;;;;;;;;;8.29;100.00;101956.47;6097822;19;20003;-79
2024/02/28 15:47:31;;;;;;;23.05;11.05;;;;;;;8.36;100.00;101961.63;6096460;19;20260;-79
2024/02/28 15:49:43;;;;;;;22.70;12.07;;;;;;;8.36;100.00;101959.00;6099964;19;20011;-79
2024/02/28 15:51:54;;;;;;;21.33;10.98;;;;;;;8.43;100.00;101957.22;6100845;19;20274;-79
2024/02/28 15:54:04;;;;;;;22.02;11.88;;;;;;;8.51;100.00;101946.63;6099023;19;20002;-80
2024/02/28 15:56:12;;;;;;;22.58;12.07;;;;;;;8.55;100.00;101943.06;6094005;19;20019;-80